createdAt,value
2016-12-26T00:00:53.867Z,0
2016-12-26T00:01:53.570Z,0
2016-12-26T00:02:53.948Z,0
2016-12-26T00:03:53.661Z,0
2016-12-26T00:04:53.949Z,0
2016-12-26T00:05:54.282Z,0
2016-12-26T00:06:53.666Z,0
2016-12-26T00:07:54.002Z,0
2016-12-26T00:08:54.078Z,0
2016-12-26T00:09:54.363Z,0
2016-12-26T00:10:54.068Z,0
2016-12-26T00:11:54.087Z,0
2016-12-26T00:12:54.107Z,0
2016-12-26T00:13:53.825Z,0
2016-12-26T00:14:54.151Z,0
2016-12-26T00:15:53.543Z,0
2016-12-26T00:16:53.889Z,0
2016-12-26T00:17:54.518Z,0
2016-12-26T00:18:54.592Z,0
2016-12-26T00:19:54.257Z,0
2016-12-26T00:20:54.572Z,0
2016-12-26T00:21:54.287Z,0
2016-12-26T00:22:53.989Z,0
2016-12-26T00:23:54.323Z,0
2016-12-26T00:24:54.047Z,0
2016-12-26T00:25:54.361Z,0
2016-12-26T00:26:54.382Z,0
2016-12-26T00:27:54.416Z,0
2016-12-26T00:28:53.851Z,0
2016-12-26T00:29:54.130Z,0
2016-12-26T00:30:54.157Z,0
2016-12-26T00:31:54.161Z,0
2016-12-26T00:32:55.139Z,0
2016-12-26T00:33:54.545Z,0
2016-12-26T00:34:54.543Z,0
2016-12-26T00:35:55.191Z,0
2016-12-26T00:36:54.584Z,0
2016-12-26T00:37:54.601Z,0
2016-12-26T00:38:54.946Z,0
2016-12-26T00:39:55.271Z,0
2016-12-26T00:40:54.972Z,0
2016-12-26T00:41:54.053Z,0
2016-12-26T00:42:54.701Z,0
2016-12-26T00:43:54.403Z,0
2016-12-26T00:44:54.742Z,0
2016-12-26T00:45:54.443Z,0
2016-12-26T00:46:55.094Z,0
2016-12-26T00:47:54.485Z,0
2016-12-26T00:48:54.506Z,0
2016-12-26T00:49:54.839Z,0
2016-12-26T00:50:55.186Z,0
2016-12-26T00:51:54.251Z,0
2016-12-26T00:52:55.210Z,0
2016-12-26T00:53:54.913Z,0
2016-12-26T00:54:55.255Z,0
2016-12-26T00:55:54.646Z,0
2016-12-26T00:56:54.666Z,0
2016-12-26T00:57:55.630Z,0
2016-12-26T00:58:54.710Z,0
2016-12-26T00:59:54.454Z,0
2016-12-26T01:00:55.053Z,0
2016-12-26T01:01:55.083Z,0
2016-12-26T01:02:55.411Z,0
2016-12-26T01:03:54.799Z,0
2016-12-26T01:04:55.453Z,0
2016-12-26T01:05:54.840Z,0
2016-12-26T01:06:55.175Z,0
2016-12-26T01:07:54.586Z,0
2016-12-26T01:08:54.901Z,0
2016-12-26T01:09:54.917Z,0
2016-12-26T01:10:54.942Z,0
2016-12-26T01:11:55.594Z,0
2016-12-26T01:12:54.980Z,0
2016-12-26T01:13:55.630Z,0
2016-12-26T01:14:55.333Z,0
2016-12-26T01:15:55.679Z,0
2016-12-26T01:16:55.371Z,0
2016-12-26T01:17:55.709Z,0
2016-12-26T01:18:55.103Z,0
2016-12-26T01:19:55.433Z,0
2016-12-26T01:20:55.456Z,0
2016-12-26T01:21:55.491Z,0
2016-12-26T01:22:55.204Z,0
2016-12-26T01:23:55.515Z,0
2016-12-26T01:24:55.552Z,0
2016-12-26T01:25:56.188Z,0
2016-12-26T01:26:54.936Z,0
2016-12-26T01:27:55.945Z,0
2016-12-26T01:28:55.926Z,0
2016-12-26T01:29:55.954Z,0
2016-12-26T01:30:55.651Z,0
2016-12-26T01:31:55.995Z,0
2016-12-26T01:32:55.722Z,0
2016-12-26T01:33:56.344Z,0
2016-12-26T01:34:56.050Z,0
2016-12-26T01:35:55.448Z,0
2016-12-26T01:36:56.399Z,0
2016-12-26T01:37:55.790Z,0
2016-12-26T01:38:55.500Z,0
2016-12-26T01:39:55.520Z,0
2016-12-26T01:40:55.537Z,0
2016-12-26T01:41:56.189Z,0
2016-12-26T01:42:55.574Z,0
2016-12-26T01:43:55.600Z,0
2016-12-26T01:44:55.930Z,0
2016-12-26T01:45:56.265Z,0
2016-12-26T01:46:55.971Z,0
2016-12-26T01:47:56.307Z,0
2016-12-26T01:48:55.709Z,0
2016-12-26T01:49:56.030Z,0
2016-12-26T01:50:56.715Z,0
2016-12-26T01:51:56.082Z,0
2016-12-26T01:52:55.776Z,0
2016-12-26T01:53:55.793Z,0
2016-12-26T01:54:55.819Z,0
2016-12-26T01:55:56.467Z,0
2016-12-26T01:56:55.857Z,0
2016-12-26T01:57:56.195Z,0
2016-12-26T01:58:55.897Z,0
2016-12-26T01:59:55.923Z,0
2016-12-26T02:00:55.620Z,0
2016-12-26T02:01:56.273Z,0
2016-12-26T02:02:56.641Z,0
2016-12-26T02:03:56.310Z,0
2016-12-26T02:04:56.650Z,0
2016-12-26T02:05:56.352Z,0
2016-12-26T02:06:56.063Z,0
2016-12-26T02:07:57.020Z,0
2016-12-26T02:08:56.437Z,0
2016-12-26T02:09:56.430Z,0
2016-12-26T02:10:55.821Z,0
2016-12-26T02:11:56.155Z,0
2016-12-26T02:12:56.498Z,0
2016-12-26T02:13:56.833Z,0
2016-12-26T02:14:56.848Z,0
2016-12-26T02:15:56.554Z,0
2016-12-26T02:16:56.570Z,0
2016-12-26T02:17:56.588Z,0
2016-12-26T02:18:56.929Z,0
2016-12-26T02:19:56.959Z,0
2016-12-26T02:20:56.036Z,0
2016-12-26T02:21:56.364Z,0
2016-12-26T02:22:57.006Z,0
2016-12-26T02:23:56.716Z,0
2016-12-26T02:24:56.418Z,0
2016-12-26T02:25:57.091Z,0
2016-12-26T02:26:56.769Z,0
2016-12-26T02:27:56.792Z,0
2016-12-26T02:28:56.516Z,0
2016-12-26T02:29:57.158Z,0
2016-12-26T02:30:56.573Z,0
2016-12-26T02:31:57.212Z,0
2016-12-26T02:32:57.205Z,0
2016-12-26T02:33:56.281Z,0
2016-12-26T02:34:56.939Z,0
2016-12-26T02:35:57.269Z,0
2016-12-26T02:36:56.658Z,0
2016-12-26T02:37:56.990Z,0
2016-12-26T02:38:57.352Z,0
2016-12-26T02:39:57.386Z,0
2016-12-26T02:40:57.098Z,0
2016-12-26T02:41:56.757Z,0
2016-12-26T02:42:57.108Z,0
2016-12-26T02:43:57.439Z,0
2016-12-26T02:44:57.146Z,0
2016-12-26T02:45:56.522Z,0
2016-12-26T02:46:56.858Z,0
2016-12-26T02:47:57.823Z,0
2016-12-26T02:48:57.528Z,0
2016-12-26T02:49:57.543Z,0
2016-12-26T02:50:56.940Z,0
2016-12-26T02:51:56.959Z,0
2016-12-26T02:52:56.978Z,0
2016-12-26T02:53:57.307Z,0
2016-12-26T02:54:57.338Z,0
2016-12-26T02:55:57.669Z,0
2016-12-26T02:56:57.055Z,0
2016-12-26T02:57:57.395Z,0
2016-12-26T02:58:58.042Z,0
2016-12-26T02:59:57.750Z,0
2016-12-26T03:00:57.162Z,0
2016-12-26T03:01:57.158Z,0
2016-12-26T03:02:57.825Z,0
2016-12-26T03:03:57.201Z,0
2016-12-26T03:04:58.164Z,0
2016-12-26T03:05:57.241Z,0
2016-12-26T03:06:57.579Z,0
2016-12-26T03:07:57.599Z,0
2016-12-26T03:08:57.618Z,0
2016-12-26T03:09:57.313Z,0
2016-12-26T03:10:57.679Z,0
2016-12-26T03:11:57.990Z,0
2016-12-26T03:12:57.705Z,0
2016-12-26T03:13:57.731Z,0
2016-12-26T03:14:57.420Z,0
2016-12-26T03:15:57.757Z,0
2016-12-26T03:16:57.462Z,0
2016-12-26T03:17:57.479Z,0
2016-12-26T03:18:57.508Z,0
2016-12-26T03:19:57.834Z,0
2016-12-26T03:20:58.249Z,0
2016-12-26T03:21:57.907Z,0
2016-12-26T03:22:57.592Z,0
2016-12-26T03:23:58.236Z,0
2016-12-26T03:24:57.627Z,0
2016-12-26T03:25:58.271Z,0
2016-12-26T03:26:57.981Z,0
2016-12-26T03:27:57.998Z,0
2016-12-26T03:28:58.024Z,0
2016-12-26T03:29:57.719Z,0
2016-12-26T03:30:57.739Z,0
2016-12-26T03:31:58.390Z,0
2016-12-26T03:32:58.097Z,0
2016-12-26T03:33:57.810Z,0
2016-12-26T03:34:58.137Z,0
2016-12-26T03:35:57.849Z,0
2016-12-26T03:36:57.870Z,0
2016-12-26T03:37:58.516Z,0
2016-12-26T03:38:57.595Z,0
2016-12-26T03:39:58.239Z,0
2016-12-26T03:40:58.578Z,0
2016-12-26T03:41:57.964Z,0
2016-12-26T03:42:58.622Z,0
2016-12-26T03:43:58.321Z,0
2016-12-26T03:44:57.709Z,0
2016-12-26T03:45:58.675Z,0
2016-12-26T03:46:58.714Z,0
2016-12-26T03:47:57.778Z,0
2016-12-26T03:48:58.735Z,0
2016-12-26T03:49:58.123Z,0
2016-12-26T03:50:58.458Z,0
2016-12-26T03:51:58.165Z,0
2016-12-26T03:52:58.505Z,0
2016-12-26T03:53:58.204Z,0
2016-12-26T03:54:58.858Z,0
2016-12-26T03:55:58.567Z,0
2016-12-26T03:56:58.897Z,0
2016-12-26T03:57:58.944Z,0
2016-12-26T03:58:58.312Z,0
2016-12-26T03:59:58.012Z,0
2016-12-26T04:00:58.350Z,0
2016-12-26T04:01:58.687Z,0
2016-12-26T04:02:58.705Z,0
2016-12-26T04:03:58.108Z,0
2016-12-26T04:04:58.774Z,0
2016-12-26T04:05:58.762Z,0
2016-12-26T04:06:59.316Z,0
2016-12-26T04:07:58.808Z,0
2016-12-26T04:08:58.823Z,0
2016-12-26T04:09:58.255Z,0
2016-12-26T04:10:59.179Z,0
2016-12-26T04:11:58.962Z,0
2016-12-26T04:12:58.927Z,0
2016-12-26T04:13:58.925Z,0
2016-12-26T04:14:58.328Z,0
2016-12-26T04:15:58.981Z,0
2016-12-26T04:16:58.357Z,0
2016-12-26T04:17:59.335Z,0
2016-12-26T04:18:59.346Z,0
2016-12-26T04:19:59.362Z,0
2016-12-26T04:20:58.758Z,0
2016-12-26T04:21:59.133Z,0
2016-12-26T04:22:59.742Z,0
2016-12-26T04:23:59.444Z,0
2016-12-26T04:24:59.147Z,0
2016-12-26T04:25:59.163Z,0
2016-12-26T04:26:59.186Z,0
2016-12-26T04:27:59.206Z,0
2016-12-26T04:28:59.227Z,0
2016-12-26T04:29:58.934Z,0
2016-12-26T04:30:59.609Z,0
2016-12-26T04:31:59.289Z,0
2016-12-26T04:32:59.718Z,0
2016-12-26T04:33:59.013Z,0
2016-12-26T04:34:59.343Z,0
2016-12-26T04:35:59.050Z,0
2016-12-26T04:36:58.781Z,0
2016-12-26T04:37:59.093Z,0
2016-12-26T04:38:59.439Z,0
2016-12-26T04:39:59.450Z,0
2016-12-26T04:40:59.150Z,0
2016-12-26T04:41:59.486Z,0
2016-12-26T04:42:59.197Z,0
2016-12-26T04:43:59.212Z,0
2016-12-26T04:44:59.237Z,0
2016-12-26T04:45:59.247Z,0
2016-12-26T04:46:59.592Z,0
2016-12-26T04:47:59.605Z,0
2016-12-26T04:48:59.960Z,0
2016-12-26T04:49:59.962Z,0
2016-12-26T04:51:00.326Z,0
2016-12-26T04:51:59.687Z,0
2016-12-26T04:53:00.023Z,0
2016-12-26T04:54:00.043Z,0
2016-12-26T04:55:00.068Z,0
2016-12-26T04:55:59.765Z,0
2016-12-26T04:56:59.816Z,0
2016-12-26T04:58:00.437Z,0
2016-12-26T04:58:59.824Z,0
2016-12-26T04:59:59.849Z,0
2016-12-26T05:00:59.563Z,0
2016-12-26T05:02:00.518Z,0
2016-12-26T05:02:59.902Z,0
2016-12-26T05:04:00.247Z,0
2016-12-26T05:04:59.946Z,0
2016-12-26T05:06:00.280Z,0
2016-12-26T05:07:00.306Z,0
2016-12-26T05:07:59.686Z,0
2016-12-26T05:08:59.723Z,0
2016-12-26T05:10:00.676Z,0
2016-12-26T05:11:00.381Z,0
2016-12-26T05:11:59.781Z,0
2016-12-26T05:13:00.104Z,0
2016-12-26T05:14:00.779Z,0
2016-12-26T05:15:00.191Z,0
2016-12-26T05:16:00.164Z,0
2016-12-26T05:16:59.553Z,0
2016-12-26T05:17:59.880Z,0
2016-12-26T05:18:59.907Z,0
2016-12-26T05:20:00.257Z,0
2016-12-26T05:20:59.630Z,0
2016-12-26T05:21:59.984Z,0
2016-12-26T05:23:00.329Z,0
2016-12-26T05:24:00.005Z,0
2016-12-26T05:25:00.341Z,0
2016-12-26T05:26:00.045Z,0
2016-12-26T05:27:00.383Z,0
2016-12-26T05:28:00.089Z,0
2016-12-26T05:29:00.732Z,0
2016-12-26T05:29:59.809Z,0
2016-12-26T05:31:00.460Z,0
2016-12-26T05:32:00.821Z,0
2016-12-26T05:33:00.499Z,0
2016-12-26T05:34:00.529Z,0
2016-12-26T05:35:00.226Z,0
2016-12-26T05:36:00.559Z,0
2016-12-26T05:37:00.268Z,0
2016-12-26T05:37:59.962Z,0
2016-12-26T05:39:00.302Z,0
2016-12-26T05:40:00.956Z,0
2016-12-26T05:41:00.031Z,0
2016-12-26T05:42:00.991Z,0
2016-12-26T05:43:00.387Z,0
2016-12-26T05:44:01.030Z,0
2016-12-26T05:45:00.738Z,0
2016-12-26T05:46:00.440Z,0
2016-12-26T05:47:00.459Z,0
2016-12-26T05:48:00.478Z,0
2016-12-26T05:49:00.504Z,0
2016-12-26T05:50:00.833Z,0
2016-12-26T05:51:00.854Z,0
2016-12-26T05:52:00.565Z,0
2016-12-26T05:53:00.912Z,0
2016-12-26T05:54:00.917Z,0
2016-12-26T05:55:01.254Z,0
2016-12-26T05:56:00.956Z,0
2016-12-26T05:57:00.982Z,0
2016-12-26T05:58:00.996Z,0
2016-12-26T05:59:01.011Z,0
2016-12-26T06:00:01.036Z,0
2016-12-26T06:01:01.688Z,0
2016-12-26T06:02:00.760Z,0
2016-12-26T06:03:00.803Z,0
2016-12-26T06:04:01.438Z,0
2016-12-26T06:05:01.452Z,0
2016-12-26T06:06:01.154Z,0
2016-12-26T06:07:01.186Z,0
2016-12-26T06:08:01.199Z,0
2016-12-26T06:09:01.531Z,0
2016-12-26T06:10:00.931Z,0
2016-12-26T06:11:01.569Z,0
2016-12-26T06:12:01.599Z,0
2016-12-26T06:13:01.314Z,0
2016-12-26T06:14:01.631Z,0
2016-12-26T06:15:01.016Z,0
2016-12-26T06:16:01.385Z,0
2016-12-26T06:17:01.371Z,0
2016-12-26T06:18:01.085Z,0
2016-12-26T06:19:00.790Z,0
2016-12-26T06:20:01.744Z,0
2016-12-26T06:21:01.154Z,0
2016-12-26T06:22:01.800Z,0
2016-12-26T06:23:01.188Z,0
2016-12-26T06:24:01.833Z,0
2016-12-26T06:25:01.215Z,0
2016-12-26T06:26:01.555Z,0
2016-12-26T06:27:01.259Z,0
2016-12-26T06:28:01.289Z,0
2016-12-26T06:29:02.244Z,0
2016-12-26T06:30:01.630Z,0
2016-12-26T06:31:01.029Z,0
2016-12-26T06:32:01.700Z,0
2016-12-26T06:33:01.748Z,0
2016-12-26T06:34:02.037Z,0
2016-12-26T06:35:01.416Z,0
2016-12-26T06:36:01.752Z,0
2016-12-26T06:37:01.770Z,0
2016-12-26T06:38:01.474Z,0
2016-12-26T06:39:01.812Z,0
2016-12-26T06:40:02.149Z,0
2016-12-26T06:41:02.167Z,0
2016-12-26T06:42:02.184Z,0
2016-12-26T06:43:01.575Z,0
2016-12-26T06:45:02.256Z,0
2016-12-26T06:46:01.962Z,0
2016-12-26T06:47:01.982Z,0
2016-12-26T06:48:02.308Z,0
2016-12-26T06:49:02.326Z,0
2016-12-26T06:50:02.348Z,0
2016-12-26T06:51:02.367Z,0
2016-12-26T06:52:02.382Z,0
2016-12-26T06:53:01.773Z,0
2016-12-26T06:54:01.479Z,0
2016-12-26T06:55:01.816Z,0
2016-12-26T06:56:02.153Z,0
2016-12-26T06:57:01.863Z,0
2016-12-26T06:58:01.555Z,0
2016-12-26T06:59:02.227Z,0
2016-12-26T07:00:01.920Z,0
2016-12-26T07:01:02.570Z,0
2016-12-26T07:02:02.902Z,0
2016-12-26T07:03:02.922Z,0
2016-12-26T07:04:02.317Z,0
2016-12-26T07:05:02.969Z,0
2016-12-26T07:06:02.354Z,0
2016-12-26T07:07:02.683Z,0
2016-12-26T07:08:02.389Z,0
2016-12-26T07:09:02.728Z,0
2016-12-26T07:10:02.113Z,0
2016-12-26T07:11:02.449Z,0
2016-12-26T07:12:02.468Z,0
2016-12-26T07:13:01.878Z,0
2016-12-26T07:14:02.511Z,0
2016-12-26T07:15:02.211Z,0
2016-12-26T07:16:02.254Z,0
2016-12-26T07:17:02.585Z,0
2016-12-26T07:18:02.275Z,0
2016-12-26T07:19:02.606Z,0
2016-12-26T07:20:02.315Z,0
2016-12-26T07:21:02.672Z,0
2016-12-26T07:22:02.036Z,0
2016-12-26T07:23:03.324Z,0
2016-12-26T07:24:02.744Z,0
2016-12-26T07:25:03.057Z,0
2016-12-26T07:26:02.432Z,0
2016-12-26T07:27:02.471Z,0
2016-12-26T07:28:03.108Z,0
2016-12-26T07:29:02.504Z,0
2016-12-26T07:30:03.147Z,5
2016-12-26T07:31:02.534Z,5
2016-12-26T07:32:02.875Z,5
2016-12-26T07:33:03.204Z,5
2016-12-26T07:34:02.914Z,5
2016-12-26T07:35:03.265Z,5
2016-12-26T07:36:02.957Z,5
2016-12-26T07:37:02.665Z,5
2016-12-26T07:38:02.990Z,5
2016-12-26T07:39:02.708Z,5
2016-12-26T07:40:03.048Z,5
2016-12-26T07:41:02.419Z,5
2016-12-26T07:42:03.075Z,10
2016-12-26T07:43:02.779Z,10
2016-12-26T07:44:03.114Z,10
2016-12-26T07:45:02.822Z,10
2016-12-26T07:46:02.520Z,10
2016-12-26T07:47:03.170Z,10
2016-12-26T07:48:03.509Z,10
2016-12-26T07:49:02.894Z,10
2016-12-26T07:50:02.609Z,10
2016-12-26T07:51:03.876Z,5
2016-12-26T07:52:02.640Z,5
2016-12-26T07:53:03.618Z,5
2016-12-26T07:54:03.312Z,5
2016-12-26T07:55:02.707Z,5
2016-12-26T07:56:03.362Z,5
2016-12-26T07:57:03.056Z,10
2016-12-26T07:58:03.728Z,10
2016-12-26T07:59:03.727Z,10
2016-12-26T08:00:03.121Z,10
2016-12-26T08:01:03.456Z,10
2016-12-26T08:02:03.469Z,10
2016-12-26T08:03:03.494Z,10
2016-12-26T08:04:03.513Z,10
2016-12-26T08:05:03.217Z,10
2016-12-26T08:06:04.190Z,10
2016-12-26T08:07:03.575Z,10
2016-12-26T08:08:03.280Z,10
2016-12-26T08:09:03.635Z,10
2016-12-26T08:10:03.322Z,10
2016-12-26T08:11:04.285Z,15
2016-12-26T08:12:03.678Z,15
2016-12-26T08:13:04.012Z,20
2016-12-26T08:14:03.397Z,20
2016-12-26T08:15:04.376Z,25
2016-12-26T08:16:04.071Z,30
2016-12-26T08:17:03.812Z,30
2016-12-26T08:18:03.184Z,30
2016-12-26T08:19:03.815Z,25
2016-12-26T08:20:04.169Z,25
2016-12-26T08:21:03.868Z,25
2016-12-26T08:22:03.906Z,20
2016-12-26T08:23:03.895Z,20
2016-12-26T08:24:04.237Z,15
2016-12-26T08:25:03.620Z,15
2016-12-26T08:26:04.274Z,20
2016-12-26T08:27:03.972Z,20
2016-12-26T08:28:03.680Z,20
2016-12-26T08:29:04.341Z,20
2016-12-26T08:30:04.048Z,20
2016-12-26T08:31:04.056Z,20
2016-12-26T08:32:03.446Z,25
2016-12-26T08:33:03.782Z,25
2016-12-26T08:34:04.751Z,25
2016-12-26T08:35:04.164Z,25
2016-12-26T08:36:04.164Z,25
2016-12-26T08:37:04.177Z,25
2016-12-26T08:38:04.518Z,25
2016-12-26T08:39:04.217Z,30
2016-12-26T08:40:04.253Z,30
2016-12-26T08:41:03.629Z,30
2016-12-26T08:42:04.598Z,30
2016-12-26T08:43:04.307Z,30
2016-12-26T08:44:04.950Z,30
2016-12-26T08:45:04.658Z,30
2016-12-26T08:46:04.368Z,30
2016-12-26T08:47:04.386Z,35
2016-12-26T08:48:04.413Z,35
2016-12-26T08:49:04.430Z,35
2016-12-26T08:50:04.775Z,35
2016-12-26T08:51:04.464Z,35
2016-12-26T08:52:04.484Z,35
2016-12-26T08:53:04.192Z,35
2016-12-26T08:54:04.206Z,35
2016-12-26T08:55:04.862Z,35
2016-12-26T08:56:04.568Z,40
2016-12-26T08:57:04.599Z,40
2016-12-26T08:58:04.924Z,40
2016-12-26T08:59:04.964Z,40
2016-12-26T09:00:04.965Z,40
2016-12-26T09:01:04.675Z,35
2016-12-26T09:02:05.020Z,35
2016-12-26T09:03:04.713Z,35
2016-12-26T09:04:04.112Z,35
2016-12-26T09:05:04.437Z,35
2016-12-26T09:06:04.481Z,35
2016-12-26T09:07:04.820Z,35
2016-12-26T09:08:04.514Z,35
2016-12-26T09:09:04.834Z,35
2016-12-26T09:10:04.881Z,35
2016-12-26T09:11:04.247Z,35
2016-12-26T09:12:05.224Z,40
2016-12-26T09:13:04.294Z,40
2016-12-26T09:14:04.632Z,40
2016-12-26T09:15:04.657Z,40
2016-12-26T09:16:04.674Z,45
2016-12-26T09:17:05.321Z,45
2016-12-26T09:18:05.040Z,50
2016-12-26T09:19:19.938Z,60
2016-12-26T09:20:05.394Z,85
2016-12-26T09:21:04.783Z,115
2016-12-26T09:22:04.798Z,135
2016-12-26T09:23:05.133Z,150
2016-12-26T09:24:05.150Z,230
2016-12-26T09:25:05.487Z,175
2016-12-26T09:26:05.199Z,140
2016-12-26T09:27:04.911Z,185
2016-12-26T09:28:05.558Z,170
2016-12-26T09:29:05.293Z,135
2016-12-26T09:30:05.281Z,95
2016-12-26T09:31:04.988Z,105
2016-12-26T09:32:04.691Z,170
2016-12-26T09:33:05.697Z,220
2016-12-26T09:34:05.056Z,240
2016-12-26T09:35:05.403Z,185
2016-12-26T09:36:05.119Z,190
2016-12-26T09:37:05.114Z,130
2016-12-26T09:38:05.458Z,110
2016-12-26T09:39:05.476Z,105
2016-12-26T09:40:05.502Z,120
2016-12-26T09:41:05.848Z,195
2016-12-26T09:42:06.184Z,200
2016-12-26T09:43:05.570Z,200
2016-12-26T09:44:05.589Z,205
2016-12-26T09:45:05.296Z,165
2016-12-26T09:46:05.949Z,120
2016-12-26T09:47:05.345Z,120
2016-12-26T09:48:05.702Z,130
2016-12-26T09:49:05.080Z,150
2016-12-26T09:50:06.043Z,160
2016-12-26T09:51:05.121Z,160
2016-12-26T09:52:05.809Z,170
2016-12-26T09:53:05.808Z,170
2016-12-26T09:54:05.190Z,190
2016-12-26T09:55:06.176Z,180
2016-12-26T09:56:06.205Z,165
2016-12-26T09:57:05.900Z,175
2016-12-26T09:58:06.233Z,165
2016-12-26T09:59:05.943Z,135
2016-12-26T10:00:06.297Z,115
2016-12-26T10:01:05.672Z,110
2016-12-26T10:02:06.016Z,110
2016-12-26T10:03:06.042Z,100
2016-12-26T10:04:06.081Z,100
2016-12-26T10:05:06.403Z,100
2016-12-26T10:06:05.795Z,105
2016-12-26T10:07:06.447Z,125
2016-12-26T10:08:06.816Z,135
2016-12-26T10:09:06.501Z,115
2016-12-26T10:10:05.891Z,100
2016-12-26T10:11:05.603Z,100
2016-12-26T10:12:06.571Z,110
2016-12-26T10:13:05.966Z,135
2016-12-26T10:14:06.006Z,145
2016-12-26T10:15:06.650Z,145
2016-12-26T10:16:06.675Z,145
2016-12-26T10:17:06.696Z,140
2016-12-26T10:18:06.724Z,135
2016-12-26T10:19:06.640Z,125
2016-12-26T10:20:06.475Z,130
2016-12-26T10:21:06.166Z,130
2016-12-26T10:22:06.191Z,120
2016-12-26T10:23:06.211Z,110
2016-12-26T10:24:06.870Z,105
2016-12-26T10:25:06.579Z,100
2016-12-26T10:26:06.937Z,115
2016-12-26T10:27:06.016Z,125
2016-12-26T10:28:06.973Z,120
2016-12-26T10:29:06.682Z,125
2016-12-26T10:30:07.021Z,135
2016-12-26T10:31:07.048Z,140
2016-12-26T10:32:06.759Z,150
2016-12-26T10:33:07.103Z,150
2016-12-26T10:34:06.815Z,150
2016-12-26T10:35:07.179Z,130
2016-12-26T10:36:06.555Z,135
2016-12-26T10:37:06.256Z,165
2016-12-26T10:38:06.918Z,200
2016-12-26T10:39:06.946Z,200
2016-12-26T10:40:06.656Z,195
2016-12-26T10:41:07.313Z,200
2016-12-26T10:42:07.646Z,215
2016-12-26T10:43:06.745Z,195
2016-12-26T10:44:07.119Z,195
2016-12-26T10:45:07.722Z,195
2016-12-26T10:46:07.128Z,140
2016-12-26T10:47:07.455Z,135
2016-12-26T10:48:07.498Z,155
2016-12-26T10:49:06.923Z,110
2016-12-26T10:50:07.232Z,110
2016-12-26T10:51:07.591Z,105
2016-12-26T10:52:07.271Z,105
2016-12-26T10:53:06.976Z,110
2016-12-26T10:54:07.316Z,110
2016-12-26T10:55:07.373Z,115
2016-12-26T10:56:07.366Z,105
2016-12-26T10:57:07.713Z,90
2016-12-26T10:58:07.503Z,80
2016-12-26T10:59:07.135Z,85
2016-12-26T11:00:07.182Z,105
2016-12-26T11:01:07.496Z,90
2016-12-26T11:02:07.843Z,80
2016-12-26T11:03:07.232Z,80
2016-12-26T11:04:08.214Z,80
2016-12-26T11:05:07.603Z,90
2016-12-26T11:06:07.955Z,80
2016-12-26T11:07:07.645Z,85
2016-12-26T11:08:08.312Z,80
2016-12-26T11:09:08.016Z,85
2016-12-26T11:10:07.407Z,80
2016-12-26T11:11:07.756Z,80
2016-12-26T11:12:08.404Z,85
2016-12-26T11:13:08.127Z,85
2016-12-26T11:14:07.849Z,90
2016-12-26T11:15:07.536Z,85
2016-12-26T11:16:08.214Z,80
2016-12-26T11:17:07.913Z,75
2016-12-26T11:18:07.930Z,75
2016-12-26T11:19:07.962Z,55
2016-12-26T11:20:07.679Z,80
2016-12-26T11:21:08.322Z,80
2016-12-26T11:22:07.752Z,80
2016-12-26T11:23:08.384Z,70
2016-12-26T11:24:08.411Z,85
2016-12-26T11:25:08.748Z,80
2016-12-26T11:26:08.453Z,70
2016-12-26T11:27:08.201Z,90
2016-12-26T11:28:08.205Z,90
2016-12-26T11:29:07.904Z,95
2016-12-26T11:30:07.922Z,95
2016-12-26T11:31:07.969Z,95
2016-12-26T11:32:08.601Z,95
2016-12-26T11:33:08.627Z,90
2016-12-26T11:34:08.021Z,95
2016-12-26T11:35:08.364Z,75
2016-12-26T11:36:08.721Z,55
2016-12-26T11:37:08.409Z,50
2016-12-26T11:38:08.473Z,40
2016-12-26T11:39:07.849Z,30
2016-12-26T11:40:08.492Z,30
2016-12-26T11:41:08.547Z,30
2016-12-26T11:42:08.234Z,30
2016-12-26T11:43:08.892Z,25
2016-12-26T11:44:08.920Z,25
2016-12-26T11:45:08.303Z,25
2016-12-26T11:46:09.015Z,20
2016-12-26T11:47:08.363Z,20
2016-12-26T11:48:08.691Z,20
2016-12-26T11:49:08.727Z,15
2016-12-26T11:50:08.433Z,15
2016-12-26T11:51:08.481Z,15
2016-12-26T11:52:09.130Z,15
2016-12-26T11:53:08.556Z,15
2016-12-26T11:54:08.548Z,10
2016-12-26T11:55:08.650Z,10
2016-12-26T11:56:08.922Z,10
2016-12-26T11:57:09.238Z,10
2016-12-26T11:58:09.343Z,10
2016-12-26T11:59:08.972Z,10
2016-12-26T12:00:09.628Z,10
2016-12-26T12:01:08.714Z,10
2016-12-26T12:02:09.084Z,10
2016-12-26T12:03:09.081Z,10
2016-12-26T12:04:09.106Z,10
2016-12-26T12:05:09.130Z,10
2016-12-26T12:06:09.174Z,10
2016-12-26T12:07:09.185Z,10
2016-12-26T12:08:09.225Z,10
2016-12-26T12:09:09.852Z,10
2016-12-26T12:10:09.325Z,10
2016-12-26T12:11:09.598Z,15
2016-12-26T12:12:09.942Z,15
2016-12-26T12:13:09.320Z,15
2016-12-26T12:14:09.346Z,15
2016-12-26T12:15:09.063Z,15
2016-12-26T12:16:09.705Z,15
2016-12-26T12:17:09.113Z,15
2016-12-26T12:18:09.164Z,15
2016-12-26T12:19:09.460Z,15
2016-12-26T12:20:09.497Z,15
2016-12-26T12:21:09.206Z,15
2016-12-26T12:22:09.229Z,15
2016-12-26T12:23:09.569Z,15
2016-12-26T12:24:09.583Z,15
2016-12-26T12:25:09.963Z,15
2016-12-26T12:26:09.970Z,15
2016-12-26T12:27:09.987Z,15
2016-12-26T12:28:09.677Z,15
2016-12-26T12:29:09.385Z,15
2016-12-26T12:30:09.724Z,15
2016-12-26T12:31:09.746Z,15
2016-12-26T12:32:09.769Z,15
2016-12-26T12:33:09.788Z,15
2016-12-26T12:34:10.258Z,15
2016-12-26T12:35:10.806Z,20
2016-12-26T12:36:10.042Z,20
2016-12-26T12:37:10.456Z,15
2016-12-26T12:38:09.594Z,15
2016-12-26T12:39:09.719Z,15
2016-12-26T12:40:09.960Z,15
2016-12-26T12:41:09.663Z,10
2016-12-26T12:42:09.689Z,10
2016-12-26T12:43:09.717Z,10
2016-12-26T12:44:09.834Z,10
2016-12-26T12:45:09.440Z,10
2016-12-26T12:46:10.107Z,10
2016-12-26T12:47:10.748Z,10
2016-12-26T12:48:09.510Z,10
2016-12-26T12:49:09.842Z,10
2016-12-26T12:50:10.179Z,10
2016-12-26T12:51:10.211Z,10
2016-12-26T12:52:10.229Z,10
2016-12-26T12:53:10.265Z,10
2016-12-26T12:54:10.274Z,5
2016-12-26T12:55:09.993Z,5
2016-12-26T12:56:10.655Z,5
2016-12-26T12:57:10.974Z,10
2016-12-26T12:58:10.686Z,10
2016-12-26T12:59:10.426Z,10
2016-12-26T13:00:10.754Z,10
2016-12-26T13:01:10.777Z,10
2016-12-26T13:02:11.099Z,10
2016-12-26T13:03:25.047Z,10
2016-12-26T13:04:10.858Z,10
2016-12-26T13:05:10.843Z,10
2016-12-26T13:06:10.551Z,10
2016-12-26T13:07:09.950Z,10
2016-12-26T13:08:10.912Z,10
2016-12-26T13:09:10.616Z,10
2016-12-26T13:10:10.952Z,10
2016-12-26T13:11:10.343Z,10
2016-12-26T13:12:10.675Z,10
2016-12-26T13:13:10.424Z,10
2016-12-26T13:14:10.427Z,5
2016-12-26T13:15:11.079Z,5
2016-12-26T13:16:11.106Z,5
2016-12-26T13:17:10.153Z,5
2016-12-26T13:18:10.505Z,5
2016-12-26T13:19:10.522Z,5
2016-12-26T13:20:11.187Z,5
2016-12-26T13:21:10.890Z,5
2016-12-26T13:22:11.238Z,5
2016-12-26T13:23:10.926Z,5
2016-12-26T13:24:11.295Z,5
2016-12-26T13:25:11.274Z,5
2016-12-26T13:26:10.347Z,5
2016-12-26T13:27:11.328Z,5
2016-12-26T13:28:11.021Z,5
2016-12-26T13:29:10.775Z,5
2016-12-26T13:30:10.765Z,5
2016-12-26T13:31:11.428Z,5
2016-12-26T13:32:11.121Z,5
2016-12-26T13:33:11.131Z,5
2016-12-26T13:34:11.475Z,5
2016-12-26T13:35:10.872Z,0
2016-12-26T13:36:11.538Z,0
2016-12-26T13:37:11.226Z,0
2016-12-26T13:38:11.244Z,0
2016-12-26T13:39:10.955Z,0
2016-12-26T13:40:11.605Z,0
2016-12-26T13:41:10.993Z,0
2016-12-26T13:42:11.993Z,0
2016-12-26T13:43:11.371Z,0
2016-12-26T13:44:11.390Z,0
2016-12-26T13:45:11.720Z,0
2016-12-26T13:46:11.434Z,0
2016-12-26T13:47:11.458Z,0
2016-12-26T13:48:11.144Z,0
2016-12-26T13:49:11.792Z,0
2016-12-26T13:50:11.812Z,0
2016-12-26T13:51:11.202Z,0
2016-12-26T13:52:10.931Z,0
2016-12-26T13:53:11.560Z,5
2016-12-26T13:54:11.266Z,5
2016-12-26T13:55:11.632Z,0
2016-12-26T13:56:11.304Z,0
2016-12-26T13:57:11.645Z,5
2016-12-26T13:58:11.671Z,5
2016-12-26T13:59:11.700Z,5
2016-12-26T14:00:11.720Z,5
2016-12-26T14:01:11.739Z,5
2016-12-26T14:02:12.066Z,5
2016-12-26T14:04:12.437Z,5
2016-12-26T14:05:11.819Z,0
2016-12-26T14:06:12.189Z,0
2016-12-26T14:07:11.225Z,0
2016-12-26T14:08:11.877Z,0
2016-12-26T14:09:11.581Z,0
2016-12-26T14:10:11.928Z,0
2016-12-26T14:11:11.618Z,0
2016-12-26T14:12:11.965Z,0
2016-12-26T14:13:12.315Z,0
2016-12-26T14:14:12.326Z,5
2016-12-26T14:15:12.335Z,5
2016-12-26T14:16:12.036Z,5
2016-12-26T14:17:12.075Z,5
2016-12-26T14:18:12.082Z,5
2016-12-26T14:19:11.807Z,5
2016-12-26T14:20:11.805Z,5
2016-12-26T14:21:12.166Z,5
2016-12-26T14:22:11.876Z,0
2016-12-26T14:23:11.865Z,0
2016-12-26T14:24:12.568Z,0
2016-12-26T14:25:12.235Z,0
2016-12-26T14:26:12.568Z,0
2016-12-26T14:27:12.270Z,0
2016-12-26T14:28:12.293Z,0
2016-12-26T14:29:12.017Z,0
2016-12-26T14:30:12.030Z,0
2016-12-26T14:31:12.048Z,0
2016-12-26T14:32:12.380Z,0
2016-12-26T14:33:12.075Z,0
2016-12-26T14:34:12.423Z,0